2114 UTC 01 April 2015 found at http://aviationweather.gov/adds/metars/
 
METAR text: KMNH 012057Z AUTO 01006KT 10SM BKN100 16/M07 A2978 RMK AO2
Conditions at: KMNH (MONUMENT/ELBERT , CO, US) observed 2057 UTC 01 April 2015
Temperature: 16.0°C (61°F)
Dewpoint: -7.0°C (19°F) [RH = 20%]
Pressure (altimeter): 29.78 inches Hg (1008.5 mb)
Winds: from the N (10 degrees) at 7 MPH (6 knots; 3.1 m/s)
Visibility: 10 or more miles (16+ km)
Ceiling: 10000 feet AGL
Clouds: broken clouds at 10000 feet AGL
Weather: automated observation with no human augmentation;
there may or may not be significant weather present at this time

METAR text: KMNH 012037Z AUTO 35007G15KT 10SM SCT090 SCT120 17/M07 A2979 RMK AO2
Conditions at: KMNH (MONUMENT/ELBERT , CO, US) observed 2037 UTC 01 April 2015
Temperature: 17.0°C (63°F)
Dewpoint: -7.0°C (19°F) [RH = 19%]
Pressure (altimeter): 29.79 inches Hg (1008.9 mb)
Winds: from the N (350 degrees) at 8 MPH (7 knots; 3.6 m/sgusting to 17 MPH (15 knots; 7.8 m/s)
Visibility: 10 or more miles (16+ km)
Ceiling: at least 12,000 feet AGL
Clouds: scattered clouds at 9000 feet AGL
scattered clouds at 12000 feet AGL
Weather: automated observation with no human augmentation;
there may or may not be significant weather present at this time

METAR text: KMNH 012014Z AUTO 34007KT 10SM BKN100 BKN110 17/M07 A2980 RMK AO2
Conditions at: KMNH (MONUMENT/ELBERT , CO, US) observed 2014 UTC 01 April 2015
Temperature: 17.0°C (63°F)
Dewpoint: -7.0°C (19°F) [RH = 19%]
Pressure (altimeter): 29.80 inches Hg (1009.2 mb)
Winds: from the NNW (340 degrees) at 8 MPH (7 knots; 3.6 m/s)
Visibility: 10 or more miles (16+ km)
Ceiling: 10000 feet AGL
Clouds: broken clouds at 10000 feet AGL
broken clouds at 11000 feet AGL
Weather: automated observation with no human augmentation;
there may or may not be significant weather present at this time

METAR text: KMNH 011957Z AUTO 33017G22KT 10SM SCT065 SCT110 16/M06 A2981 RMK AO2
Conditions at: KMNH (MONUMENT/ELBERT , CO, US) observed 1957 UTC 01 April 2015
Temperature: 16.0°C (61°F)
Dewpoint: -6.0°C (21°F) [RH = 21%]
Pressure (altimeter): 29.81 inches Hg (1009.6 mb)
Winds: from the NNW (330 degrees) at 20 MPH (17 knots; 8.8 m/sgusting to 25 MPH (22 knots; 11.4 m/s)
Visibility: 10 or more miles (16+ km)
Ceiling: at least 12,000 feet AGL
Clouds: scattered clouds at 6500 feet AGL
scattered clouds at 11000 feet AGL
Weather: automated observation with no human augmentation;
there may or may not be significant weather present at this time

METAR text: KMNH 011937Z AUTO 07005G25KT 10SM SCT047 SCT065 BKN075 15/M08 A2981 RMK AO2
Conditions at: KMNH (MONUMENT/ELBERT , CO, US) observed 1937 UTC 01 April 2015
Temperature: 15.0°C (59°F)
Dewpoint: -8.0°C (18°F) [RH = 20%]
Pressure (altimeter): 29.81 inches Hg (1009.6 mb)
Winds: from the ENE (70 degrees) at 6 MPH (5 knots; 2.6 m/sgusting to 29 MPH (25 knots; 13.0 m/s)
Visibility: 10 or more miles (16+ km)
Ceiling: 7500 feet AGL
Clouds: scattered clouds at 4700 feet AGL
scattered clouds at 6500 feet AGL
broken clouds at 7500 feet AGL
Weather: automated observation with no human augmentation;
there may or may not be significant weather present at this time

METAR text: KMNH 011914Z AUTO 28017G24KT 10SM SCT085 SCT090 BKN110 16/M08 A2982 RMK AO2
Conditions at: KMNH (MONUMENT/ELBERT , CO, US) observed 1914 UTC 01 April 2015
Temperature: 16.0°C (61°F)
Dewpoint: -8.0°C (18°F) [RH = 18%]
Pressure (altimeter): 29.82 inches Hg (1009.9 mb)
Winds: from the W (280 degrees) at 20 MPH (17 knots; 8.8 m/sgusting to 28 MPH (24 knots; 12.5 m/s)
Visibility: 10 or more miles (16+ km)
Ceiling: 11000 feet AGL
Clouds: scattered clouds at 8500 feet AGL
scattered clouds at 9000 feet AGL
broken clouds at 11000 feet AGL
Weather: automated observation with no human augmentation;
there may or may not be significant weather present at this time

METAR text: KMNH 011857Z AUTO 27005KT 10SM SCT070 SCT085 BKN120 16/M08 A2982 RMK AO2
Conditions at: KMNH (MONUMENT/ELBERT , CO, US) observed 1857 UTC 01 April 2015
Temperature: 16.0°C (61°F)
Dewpoint: -8.0°C (18°F) [RH = 18%]
Pressure (altimeter): 29.82 inches Hg (1009.9 mb)
Winds: from the W (270 degrees) at 6 MPH (5 knots; 2.6 m/s)
Visibility: 10 or more miles (16+ km)
Ceiling: 12000 feet AGL
Clouds: scattered clouds at 7000 feet AGL
scattered clouds at 8500 feet AGL
broken clouds at 12000 feet AGL
Weather: automated observation with no human augmentation;
there may or may not be significant weather present at this time

METAR text: KMNH 011837Z AUTO 18003KT 10SM SCT110 17/M08 A2982 RMK AO2
Conditions at: KMNH (MONUMENT/ELBERT , CO, US) observed 1837 UTC 01 April 2015
Temperature: 17.0°C (63°F)
Dewpoint: -8.0°C (18°F) [RH = 17%]
Pressure (altimeter): 29.82 inches Hg (1009.9 mb)
Winds: from the S (180 degrees) at 3 MPH (3 knots; 1.6 m/s)
Visibility: 10 or more miles (16+ km)
Ceiling: at least 12,000 feet AGL
Clouds: scattered clouds at 11000 feet AGL
Weather: automated observation with no human augmentation;
there may or may not be significant weather present at this time

METAR text: KMNH 011816Z AUTO 17004KT 10SM SCT120 17/M08 A2983 RMK AO2
Conditions at: KMNH (MONUMENT/ELBERT , CO, US) observed 1816 UTC 01 April 2015
Temperature: 17.0°C (63°F)
Dewpoint: -8.0°C (18°F) [RH = 17%]
Pressure (altimeter): 29.83 inches Hg (1010.2 mb)
Winds: from the S (170 degrees) at 5 MPH (4 knots; 2.1 m/s)
Visibility: 10 or more miles (16+ km)
Ceiling: at least 12,000 feet AGL
Clouds: scattered clouds at 12000 feet AGL
Weather: automated observation with no human augmentation;
there may or may not be significant weather present at this time

METAR text: KMNH 011757Z AUTO 26004KT 10SM CLR 17/M08 A2984 RMK AO2
Conditions at: KMNH (MONUMENT/ELBERT , CO, US) observed 1757 UTC 01 April 2015
Temperature: 17.0°C (63°F)
Dewpoint: -8.0°C (18°F) [RH = 17%]
Pressure (altimeter): 29.84 inches Hg (1010.6 mb)
Winds: from the W (260 degrees) at 5 MPH (4 knots; 2.1 m/s)
Visibility: 10 or more miles (16+ km)
Ceiling: at least 12,000 feet AGL
Clouds: sky clear below 12,000 feet AGL
Weather: automated observation with no human augmentation;
there may or may not be significant weather present at this time

METAR text: KMNH 011737Z AUTO 33005KT 10SM CLR 17/M08 A2985 RMK AO2
Conditions at: KMNH (MONUMENT/ELBERT , CO, US) observed 1737 UTC 01 April 2015
Temperature: 17.0°C (63°F)
Dewpoint: -8.0°C (18°F) [RH = 17%]
Pressure (altimeter): 29.85 inches Hg (1010.9 mb)
Winds: from the NNW (330 degrees) at 6 MPH (5 knots; 2.6 m/s)
Visibility: 10 or more miles (16+ km)
Ceiling: at least 12,000 feet AGL
Clouds: sky clear below 12,000 feet AGL
Weather: automated observation with no human augmentation;
there may or may not be significant weather present at this time

METAR text: KMNH 011717Z AUTO 23005G14KT 10SM SCT100 17/M08 A2986 RMK AO2
Conditions at: KMNH (MONUMENT/ELBERT , CO, US) observed 1717 UTC 01 April 2015
Temperature: 17.0°C (63°F)
Dewpoint: -8.0°C (18°F) [RH = 17%]
Pressure (altimeter): 29.86 inches Hg (1011.3 mb)
Winds: from the SW (230 degrees) at 6 MPH (5 knots; 2.6 m/sgusting to 16 MPH (14 knots; 7.3 m/s)
Visibility: 10 or more miles (16+ km)
Ceiling: at least 12,000 feet AGL
Clouds: scattered clouds at 10000 feet AGL
Weather: automated observation with no human augmentation;
there may or may not be significant weather present at this time

METAR text: KMNH 011657Z AUTO 29007KT 10SM SCT100 17/M07 A2987 RMK AO2
Conditions at: KMNH (MONUMENT/ELBERT , CO, US) observed 1657 UTC 01 April 2015
Temperature: 17.0°C (63°F)
Dewpoint: -7.0°C (19°F) [RH = 19%]
Pressure (altimeter): 29.87 inches Hg (1011.6 mb)
Winds: from the WNW (290 degrees) at 8 MPH (7 knots; 3.6 m/s)
Visibility: 10 or more miles (16+ km)
Ceiling: at least 12,000 feet AGL
Clouds: scattered clouds at 10000 feet AGL
Weather: automated observation with no human augmentation;
there may or may not be significant weather present at this time

METAR text: KMNH 011637Z AUTO 31005G08KT 10SM CLR 16/M08 A2988 RMK AO2
Conditions at: KMNH (MONUMENT/ELBERT , CO, US) observed 1637 UTC 01 April 2015
Temperature: 16.0°C (61°F)
Dewpoint: -8.0°C (18°F) [RH = 18%]
Pressure (altimeter): 29.88 inches Hg (1011.9 mb)
Winds: from the NW (310 degrees) at 6 MPH (5 knots; 2.6 m/sgusting to 9 MPH (8 knots; 4.2 m/s)
Visibility: 10 or more miles (16+ km)
Ceiling: at least 12,000 feet AGL
Clouds: sky clear below 12,000 feet AGL
Weather: automated observation with no human augmentation;
there may or may not be significant weather present at this time

METAR text: KMNH 011617Z AUTO 27009KT 10SM SCT120 16/M07 A2987 RMK AO2
Conditions at: KMNH (MONUMENT/ELBERT , CO, US) observed 1617 UTC 01 April 2015
Temperature: 16.0°C (61°F)
Dewpoint: -7.0°C (19°F) [RH = 20%]
Pressure (altimeter): 29.87 inches Hg (1011.6 mb)
Winds: from the W (270 degrees) at 10 MPH (9 knots; 4.7 m/s)
Visibility: 10 or more miles (16+ km)
Ceiling: at least 12,000 feet AGL
Clouds: scattered clouds at 12000 feet AGL
Weather: automated observation with no human augmentation;
there may or may not be significant weather present at this time

METAR text: KMNH 011557Z AUTO 22005KT 10SM CLR 16/M06 A2987 RMK AO2
Conditions at: KMNH (MONUMENT/ELBERT , CO, US) observed 1557 UTC 01 April 2015
Temperature: 16.0°C (61°F)
Dewpoint: -6.0°C (21°F) [RH = 21%]
Pressure (altimeter): 29.87 inches Hg (1011.6 mb)
Winds: from the SW (220 degrees) at 6 MPH (5 knots; 2.6 m/s)
Visibility: 10 or more miles (16+ km)
Ceiling: at least 12,000 feet AGL
Clouds: sky clear below 12,000 feet AGL
Weather: automated observation with no human augmentation;
there may or may not be significant weather present at this time

METAR text: KMNH 011536Z AUTO 23010KT 10SM CLR 15/M05 A2987 RMK AO2
Conditions at: KMNH (MONUMENT/ELBERT , CO, US) observed 1536 UTC 01 April 2015
Temperature: 15.0°C (59°F)
Dewpoint: -5.0°C (23°F) [RH = 25%]
Pressure (altimeter): 29.87 inches Hg (1011.6 mb)
Winds: from the SW (230 degrees) at 12 MPH (10 knots; 5.2 m/s)
Visibility: 10 or more miles (16+ km)
Ceiling: at least 12,000 feet AGL
Clouds: sky clear below 12,000 feet AGL
Weather: automated observation with no human augmentation;
there may or may not be significant weather present at this time

METAR text: KMNH 011516Z AUTO 24010KT 10SM CLR 13/M05 A2987 RMK AO2
Conditions at: KMNH (MONUMENT/ELBERT , CO, US) observed 1516 UTC 01 April 2015
Temperature: 13.0°C (55°F)
Dewpoint: -5.0°C (23°F) [RH = 28%]
Pressure (altimeter): 29.87 inches Hg (1011.6 mb)
Winds: from the WSW (240 degrees) at 12 MPH (10 knots; 5.2 m/s)
Visibility: 10 or more miles (16+ km)
Ceiling: at least 12,000 feet AGL
Clouds: sky clear below 12,000 feet AGL
Weather: automated observation with no human augmentation;
there may or may not be significant weather present at this time

METAR text: KMNH 011457Z AUTO 23008KT 10SM CLR 11/M05 A2987 RMK AO2
Conditions at: KMNH (MONUMENT/ELBERT , CO, US) observed 1457 UTC 01 April 2015
Temperature: 11.0°C (52°F)
Dewpoint: -5.0°C (23°F) [RH = 32%]
Pressure (altimeter): 29.87 inches Hg (1011.6 mb)
Winds: from the SW (230 degrees) at 9 MPH (8 knots; 4.2 m/s)
Visibility: 10 or more miles (16+ km)
Ceiling: at least 12,000 feet AGL
Clouds: sky clear below 12,000 feet AGL
Weather: automated observation with no human augmentation;
there may or may not be significant weather present at this time

METAR text: KMNH 011437Z AUTO 22008KT 10SM CLR 10/M05 A2987 RMK AO2
Conditions at: KMNH (MONUMENT/ELBERT , CO, US) observed 1437 UTC 01 April 2015
Temperature: 10.0°C (50°F)
Dewpoint: -5.0°C (23°F) [RH = 34%]
Pressure (altimeter): 29.87 inches Hg (1011.6 mb)
Winds: from the SW (220 degrees) at 9 MPH (8 knots; 4.2 m/s)
Visibility: 10 or more miles (16+ km)
Ceiling: at least 12,000 feet AGL
Clouds: sky clear below 12,000 feet AGL
Weather: automated observation with no human augmentation;
there may or may not be significant weather present at this time

METAR text: KMNH 011417Z AUTO 22009KT 10SM CLR 10/M05 A2987 RMK AO2
Conditions at: KMNH (MONUMENT/ELBERT , CO, US) observed 1417 UTC 01 April 2015
Temperature: 10.0°C (50°F)
Dewpoint: -5.0°C (23°F) [RH = 34%]
Pressure (altimeter): 29.87 inches Hg (1011.6 mb)
Winds: from the SW (220 degrees) at 10 MPH (9 knots; 4.7 m/s)
Visibility: 10 or more miles (16+ km)
Ceiling: at least 12,000 feet AGL
Clouds: sky clear below 12,000 feet AGL
Weather: automated observation with no human augmentation;
there may or may not be significant weather present at this time

METAR text: KMNH 011357Z AUTO 22008KT 10SM CLR 10/M06 A2987 RMK AO2
Conditions at: KMNH (MONUMENT/ELBERT , CO, US) observed 1357 UTC 01 April 2015
Temperature: 10.0°C (50°F)
Dewpoint: -6.0°C (21°F) [RH = 32%]
Pressure (altimeter): 29.87 inches Hg (1011.6 mb)
Winds: from the SW (220 degrees) at 9 MPH (8 knots; 4.2 m/s)
Visibility: 10 or more miles (16+ km)
Ceiling: at least 12,000 feet AGL
Clouds: sky clear below 12,000 feet AGL
Weather: automated observation with no human augmentation;
there may or may not be significant weather present at this time

METAR text: KMNH 011337Z AUTO 23008KT 10SM CLR 10/M06 A2987 RMK AO2
Conditions at: KMNH (MONUMENT/ELBERT , CO, US) observed 1337 UTC 01 April 2015
Temperature: 10.0°C (50°F)
Dewpoint: -6.0°C (21°F) [RH = 32%]
Pressure (altimeter): 29.87 inches Hg (1011.6 mb)
Winds: from the SW (230 degrees) at 9 MPH (8 knots; 4.2 m/s)
Visibility: 10 or more miles (16+ km)
Ceiling: at least 12,000 feet AGL
Clouds: sky clear below 12,000 feet AGL
Weather: automated observation with no human augmentation;
there may or may not be significant weather present at this time

METAR text: KMNH 011316Z AUTO 23008KT 10SM CLR 10/M06 A2987 RMK AO2
Conditions at: KMNH (MONUMENT/ELBERT , CO, US) observed 1316 UTC 01 April 2015
Temperature: 10.0°C (50°F)
Dewpoint: -6.0°C (21°F) [RH = 32%]
Pressure (altimeter): 29.87 inches Hg (1011.6 mb)
Winds: from the SW (230 degrees) at 9 MPH (8 knots; 4.2 m/s)
Visibility: 10 or more miles (16+ km)
Ceiling: at least 12,000 feet AGL
Clouds: sky clear below 12,000 feet AGL
Weather: automated observation with no human augmentation;
there may or may not be significant weather present at this time

METAR text: KMNH 011257Z AUTO 22006KT 10SM CLR 08/M06 A2986 RMK AO2
Conditions at: KMNH (MONUMENT/ELBERT , CO, US) observed 1257 UTC 01 April 2015
Temperature: 8.0°C (46°F)
Dewpoint: -6.0°C (21°F) [RH = 36%]
Pressure (altimeter): 29.86 inches Hg (1011.3 mb)
Winds: from the SW (220 degrees) at 7 MPH (6 knots; 3.1 m/s)
Visibility: 10 or more miles (16+ km)
Ceiling: at least 12,000 feet AGL
Clouds: sky clear below 12,000 feet AGL
Weather: automated observation with no human augmentation;
there may or may not be significant weather present at this time

METAR text: KMNH 011237Z AUTO 22005KT 10SM CLR 08/M06 A2985 RMK AO2
Conditions at: KMNH (MONUMENT/ELBERT , CO, US) observed 1237 UTC 01 April 2015
Temperature: 8.0°C (46°F)
Dewpoint: -6.0°C (21°F) [RH = 36%]
Pressure (altimeter): 29.85 inches Hg (1010.9 mb)
Winds: from the SW (220 degrees) at 6 MPH (5 knots; 2.6 m/s)
Visibility: 10 or more miles (16+ km)
Ceiling: at least 12,000 feet AGL
Clouds: sky clear below 12,000 feet AGL
Weather: automated observation with no human augmentation;
there may or may not be significant weather present at this time

METAR text: KMNH 011217Z AUTO 23006KT 10SM CLR 10/M07 A2985 RMK AO2
Conditions at: KMNH (MONUMENT/ELBERT , CO, US) observed 1217 UTC 01 April 2015
Temperature: 10.0°C (50°F)
Dewpoint: -7.0°C (19°F) [RH = 29%]
Pressure (altimeter): 29.85 inches Hg (1010.9 mb)
Winds: from the SW (230 degrees) at 7 MPH (6 knots; 3.1 m/s)
Visibility: 10 or more miles (16+ km)
Ceiling: at least 12,000 feet AGL
Clouds: sky clear below 12,000 feet AGL
Weather: automated observation with no human augmentation;
there may or may not be significant weather present at this time

METAR text: KMNH 011157Z AUTO 20005KT 10SM CLR 08/M07 A2985 RMK AO2
Conditions at: KMNH (MONUMENT/ELBERT , CO, US) observed 1157 UTC 01 April 2015
Temperature: 8.0°C (46°F)
Dewpoint: -7.0°C (19°F) [RH = 34%]
Pressure (altimeter): 29.85 inches Hg (1010.9 mb)
Winds: from the SSW (200 degrees) at 6 MPH (5 knots; 2.6 m/s)
Visibility: 10 or more miles (16+ km)
Ceiling: at least 12,000 feet AGL
Clouds: sky clear below 12,000 feet AGL
Weather: automated observation with no human augmentation;
there may or may not be significant weather present at this time

METAR text: KMNH 011135Z AUTO 22008KT 10SM CLR 10/M07 A2984 RMK AO2
Conditions at: KMNH (MONUMENT/ELBERT , CO, US) observed 1135 UTC 01 April 2015
Temperature: 10.0°C (50°F)
Dewpoint: -7.0°C (19°F) [RH = 29%]
Pressure (altimeter): 29.84 inches Hg (1010.6 mb)
Winds: from the SW (220 degrees) at 9 MPH (8 knots; 4.2 m/s)
Visibility: 10 or more miles (16+ km)
Ceiling: at least 12,000 feet AGL
Clouds: sky clear below 12,000 feet AGL
Weather: automated observation with no human augmentation;
there may or may not be significant weather present at this time

METAR text: KMNH 011117Z AUTO 24007KT 10SM CLR 06/M06 A2984 RMK AO2
Conditions at: KMNH (MONUMENT/ELBERT , CO, US) observed 1117 UTC 01 April 2015
Temperature: 6.0°C (43°F)
Dewpoint: -6.0°C (21°F) [RH = 42%]
Pressure (altimeter): 29.84 inches Hg (1010.6 mb)
Winds: from the WSW (240 degrees) at 8 MPH (7 knots; 3.6 m/s)
Visibility: 10 or more miles (16+ km)
Ceiling: at least 12,000 feet AGL
Clouds: sky clear below 12,000 feet AGL
Weather: automated observation with no human augmentation;
there may or may not be significant weather present at this time

METAR text: KMNH 011057Z AUTO 19006KT 10SM CLR 08/M07 A2984 RMK AO2
Conditions at: KMNH (MONUMENT/ELBERT , CO, US) observed 1057 UTC 01 April 2015
Temperature: 8.0°C (46°F)
Dewpoint: -7.0°C (19°F) [RH = 34%]
Pressure (altimeter): 29.84 inches Hg (1010.6 mb)
Winds: from the S (190 degrees) at 7 MPH (6 knots; 3.1 m/s)
Visibility: 10 or more miles (16+ km)
Ceiling: at least 12,000 feet AGL
Clouds: sky clear below 12,000 feet AGL
Weather: automated observation with no human augmentation;
there may or may not be significant weather present at this time

METAR text: KMNH 011037Z AUTO 18008KT 10SM CLR 06/M06 A2985 RMK AO2
Conditions at: KMNH (MONUMENT/ELBERT , CO, US) observed 1037 UTC 01 April 2015
Temperature: 6.0°C (43°F)
Dewpoint: -6.0°C (21°F) [RH = 42%]
Pressure (altimeter): 29.85 inches Hg (1010.9 mb)
Winds: from the S (180 degrees) at 9 MPH (8 knots; 4.2 m/s)
Visibility: 10 or more miles (16+ km)
Ceiling: at least 12,000 feet AGL
Clouds: sky clear below 12,000 feet AGL
Weather: automated observation with no human augmentation;
there may or may not be significant weather present at this time

METAR text: KMNH 011017Z AUTO 20005KT 10SM CLR 05/M06 A2985 RMK AO2
Conditions at: KMNH (MONUMENT/ELBERT , CO, US) observed 1017 UTC 01 April 2015
Temperature: 5.0°C (41°F)
Dewpoint: -6.0°C (21°F) [RH = 45%]
Pressure (altimeter): 29.85 inches Hg (1010.9 mb)
Winds: from the SSW (200 degrees) at 6 MPH (5 knots; 2.6 m/s)
Visibility: 10 or more miles (16+ km)
Ceiling: at least 12,000 feet AGL
Clouds: sky clear below 12,000 feet AGL
Weather: automated observation with no human augmentation;
there may or may not be significant weather present at this time

METAR text: KMNH 010957Z AUTO 20005KT 10SM CLR 04/M06 A2985 RMK AO2
Conditions at: KMNH (MONUMENT/ELBERT , CO, US) observed 0957 UTC 01 April 2015
Temperature: 4.0°C (39°F)
Dewpoint: -6.0°C (21°F) [RH = 48%]
Pressure (altimeter): 29.85 inches Hg (1010.9 mb)
Winds: from the SSW (200 degrees) at 6 MPH (5 knots; 2.6 m/s)
Visibility: 10 or more miles (16+ km)
Ceiling: at least 12,000 feet AGL
Clouds: sky clear below 12,000 feet AGL
Weather: automated observation with no human augmentation;
there may or may not be significant weather present at this time

METAR text: KMNH 010937Z AUTO 19006KT 10SM CLR 05/M06 A2985 RMK AO2
Conditions at: KMNH (MONUMENT/ELBERT , CO, US) observed 0937 UTC 01 April 2015
Temperature: 5.0°C (41°F)
Dewpoint: -6.0°C (21°F) [RH = 45%]
Pressure (altimeter): 29.85 inches Hg (1010.9 mb)
Winds: from the S (190 degrees) at 7 MPH (6 knots; 3.1 m/s)
Visibility: 10 or more miles (16+ km)
Ceiling: at least 12,000 feet AGL
Clouds: sky clear below 12,000 feet AGL
Weather: automated observation with no human augmentation;
there may or may not be significant weather present at this time

METAR text: KMNH 010917Z AUTO 19003KT 10SM CLR 06/M06 A2986 RMK AO2
Conditions at: KMNH (MONUMENT/ELBERT , CO, US) observed 0917 UTC 01 April 2015
Temperature: 6.0°C (43°F)
Dewpoint: -6.0°C (21°F) [RH = 42%]
Pressure (altimeter): 29.86 inches Hg (1011.3 mb)
Winds: from the S (190 degrees) at 3 MPH (3 knots; 1.6 m/s)
Visibility: 10 or more miles (16+ km)
Ceiling: at least 12,000 feet AGL
Clouds: sky clear below 12,000 feet AGL
Weather: automated observation with no human augmentation;
there may or may not be significant weather present at this time

METAR text: KMNH 010857Z AUTO 19008KT 10SM CLR 06/M06 A2987 RMK AO2
Conditions at: KMNH (MONUMENT/ELBERT , CO, US) observed 0857 UTC 01 April 2015
Temperature: 6.0°C (43°F)
Dewpoint: -6.0°C (21°F) [RH = 42%]
Pressure (altimeter): 29.87 inches Hg (1011.6 mb)
Winds: from the S (190 degrees) at 9 MPH (8 knots; 4.2 m/s)
Visibility: 10 or more miles (16+ km)
Ceiling: at least 12,000 feet AGL
Clouds: sky clear below 12,000 feet AGL
Weather: automated observation with no human augmentation;
there may or may not be significant weather present at this time

METAR text: KMNH 010837Z AUTO 21007KT 10SM CLR 08/M07 A2987 RMK AO2
Conditions at: KMNH (MONUMENT/ELBERT , CO, US) observed 0837 UTC 01 April 2015
Temperature: 8.0°C (46°F)
Dewpoint: -7.0°C (19°F) [RH = 34%]
Pressure (altimeter): 29.87 inches Hg (1011.6 mb)
Winds: from the SSW (210 degrees) at 8 MPH (7 knots; 3.6 m/s)
Visibility: 10 or more miles (16+ km)
Ceiling: at least 12,000 feet AGL
Clouds: sky clear below 12,000 feet AGL
Weather: automated observation with no human augmentation;
there may or may not be significant weather present at this time

METAR text: KMNH 010817Z AUTO 22009KT 10SM CLR 09/M07 A2989 RMK AO2
Conditions at: KMNH (MONUMENT/ELBERT , CO, US) observed 0817 UTC 01 April 2015
Temperature: 9.0°C (48°F)
Dewpoint: -7.0°C (19°F) [RH = 32%]
Pressure (altimeter): 29.89 inches Hg (1012.3 mb)
Winds: from the SW (220 degrees) at 10 MPH (9 knots; 4.7 m/s)
Visibility: 10 or more miles (16+ km)
Ceiling: at least 12,000 feet AGL
Clouds: sky clear below 12,000 feet AGL
Weather: automated observation with no human augmentation;
there may or may not be significant weather present at this time

METAR text: KMNH 010757Z AUTO 21006KT 10SM CLR 08/M06 A2989 RMK AO2
Conditions at: KMNH (MONUMENT/ELBERT , CO, US) observed 0757 UTC 01 April 2015
Temperature: 8.0°C (46°F)
Dewpoint: -6.0°C (21°F) [RH = 36%]
Pressure (altimeter): 29.89 inches Hg (1012.3 mb)
Winds: from the SSW (210 degrees) at 7 MPH (6 knots; 3.1 m/s)
Visibility: 10 or more miles (16+ km)
Ceiling: at least 12,000 feet AGL
Clouds: sky clear below 12,000 feet AGL
Weather: automated observation with no human augmentation;
there may or may not be significant weather present at this time

METAR text: KMNH 010737Z AUTO 23009KT 10SM CLR 09/M06 A2990 RMK AO2
Conditions at: KMNH (MONUMENT/ELBERT , CO, US) observed 0737 UTC 01 April 2015
Temperature: 9.0°C (48°F)
Dewpoint: -6.0°C (21°F) [RH = 34%]
Pressure (altimeter): 29.90 inches Hg (1012.6 mb)
Winds: from the SW (230 degrees) at 10 MPH (9 knots; 4.7 m/s)
Visibility: 10 or more miles (16+ km)
Ceiling: at least 12,000 feet AGL
Clouds: sky clear below 12,000 feet AGL
Weather: automated observation with no human augmentation;
there may or may not be significant weather present at this time

METAR text: KMNH 010716Z AUTO 23010KT 10SM CLR 10/M06 A2991 RMK AO2
Conditions at: KMNH (MONUMENT/ELBERT , CO, US) observed 0716 UTC 01 April 2015
Temperature: 10.0°C (50°F)
Dewpoint: -6.0°C (21°F) [RH = 32%]
Pressure (altimeter): 29.91 inches Hg (1013.0 mb)
Winds: from the SW (230 degrees) at 12 MPH (10 knots; 5.2 m/s)
Visibility: 10 or more miles (16+ km)
Ceiling: at least 12,000 feet AGL
Clouds: sky clear below 12,000 feet AGL
Weather: automated observation with no human augmentation;
there may or may not be significant weather present at this time

METAR text: KMNH 010657Z AUTO 23011KT 10SM CLR 07/M06 A2991 RMK AO2
Conditions at: KMNH (MONUMENT/ELBERT , CO, US) observed 0657 UTC 01 April 2015
Temperature: 7.0°C (45°F)
Dewpoint: -6.0°C (21°F) [RH = 39%]
Pressure (altimeter): 29.91 inches Hg (1013.0 mb)
Winds: from the SW (230 degrees) at 13 MPH (11 knots; 5.7 m/s)
Visibility: 10 or more miles (16+ km)
Ceiling: at least 12,000 feet AGL
Clouds: sky clear below 12,000 feet AGL
Weather: automated observation with no human augmentation;
there may or may not be significant weather present at this time

METAR text: KMNH 010637Z AUTO 20008KT 10SM CLR 06/M05 A2991 RMK AO2
Conditions at: KMNH (MONUMENT/ELBERT , CO, US) observed 0637 UTC 01 April 2015
Temperature: 6.0°C (43°F)
Dewpoint: -5.0°C (23°F) [RH = 45%]
Pressure (altimeter): 29.91 inches Hg (1013.0 mb)
Winds: from the SSW (200 degrees) at 9 MPH (8 knots; 4.2 m/s)
Visibility: 10 or more miles (16+ km)
Ceiling: at least 12,000 feet AGL
Clouds: sky clear below 12,000 feet AGL
Weather: automated observation with no human augmentation;
there may or may not be significant weather present at this time

METAR text: KMNH 010617Z AUTO 18009KT 10SM CLR 05/M04 A2991 RMK AO2
Conditions at: KMNH (MONUMENT/ELBERT , CO, US) observed 0617 UTC 01 April 2015
Temperature: 5.0°C (41°F)
Dewpoint: -4.0°C (25°F) [RH = 52%]
Pressure (altimeter): 29.91 inches Hg (1013.0 mb)
Winds: from the S (180 degrees) at 10 MPH (9 knots; 4.7 m/s)
Visibility: 10 or more miles (16+ km)
Ceiling: at least 12,000 feet AGL
Clouds: sky clear below 12,000 feet AGL
Weather: automated observation with no human augmentation;
there may or may not be significant weather present at this time

METAR text: KMNH 010557Z AUTO 18008KT 10SM CLR 05/M05 A2992 RMK AO2
Conditions at: KMNH (MONUMENT/ELBERT , CO, US) observed 0557 UTC 01 April 2015
Temperature: 5.0°C (41°F)
Dewpoint: -5.0°C (23°F) [RH = 48%]
Pressure (altimeter): 29.92 inches Hg (1013.3 mb)
Winds: from the S (180 degrees) at 9 MPH (8 knots; 4.2 m/s)
Visibility: 10 or more miles (16+ km)
Ceiling: at least 12,000 feet AGL
Clouds: sky clear below 12,000 feet AGL
Weather: automated observation with no human augmentation;
there may or may not be significant weather present at this time

METAR text: KMNH 010537Z AUTO 19008KT 10SM CLR 08/M05 A2992 RMK AO2
Conditions at: KMNH (MONUMENT/ELBERT , CO, US) observed 0537 UTC 01 April 2015
Temperature: 8.0°C (46°F)
Dewpoint: -5.0°C (23°F) [RH = 39%]
Pressure (altimeter): 29.92 inches Hg (1013.3 mb)
Winds: from the S (190 degrees) at 9 MPH (8 knots; 4.2 m/s)
Visibility: 10 or more miles (16+ km)
Ceiling: at least 12,000 feet AGL
Clouds: sky clear below 12,000 feet AGL
Weather: automated observation with no human augmentation;
there may or may not be significant weather present at this time

METAR text: KMNH 010517Z AUTO 19008KT 10SM CLR 07/M05 A2993 RMK AO2
Conditions at: KMNH (MONUMENT/ELBERT , CO, US) observed 0517 UTC 01 April 2015
Temperature: 7.0°C (45°F)
Dewpoint: -5.0°C (23°F) [RH = 42%]
Pressure (altimeter): 29.93 inches Hg (1013.6 mb)
Winds: from the S (190 degrees) at 9 MPH (8 knots; 4.2 m/s)
Visibility: 10 or more miles (16+ km)
Ceiling: at least 12,000 feet AGL
Clouds: sky clear below 12,000 feet AGL
Weather: automated observation with no human augmentation;
there may or may not be significant weather present at this time

METAR text: KMNH 010456Z AUTO 19007KT 10SM CLR 06/M06 A2993 RMK AO2
Conditions at: KMNH (MONUMENT/ELBERT , CO, US) observed 0456 UTC 01 April 2015
Temperature: 6.0°C (43°F)
Dewpoint: -6.0°C (21°F) [RH = 42%]
Pressure (altimeter): 29.93 inches Hg (1013.6 mb)
Winds: from the S (190 degrees) at 8 MPH (7 knots; 3.6 m/s)
Visibility: 10 or more miles (16+ km)
Ceiling: at least 12,000 feet AGL
Clouds: sky clear below 12,000 feet AGL
Weather: automated observation with no human augmentation;
there may or may not be significant weather present at this time

METAR text: KMNH 010437Z AUTO 21007KT 10SM CLR 08/M07 A2994 RMK AO2
Conditions at: KMNH (MONUMENT/ELBERT , CO, US) observed 0437 UTC 01 April 2015
Temperature: 8.0°C (46°F)
Dewpoint: -7.0°C (19°F) [RH = 34%]
Pressure (altimeter): 29.94 inches Hg (1014.0 mb)
Winds: from the SSW (210 degrees) at 8 MPH (7 knots; 3.6 m/s)
Visibility: 10 or more miles (16+ km)
Ceiling: at least 12,000 feet AGL
Clouds: sky clear below 12,000 feet AGL
Weather: automated observation with no human augmentation;
there may or may not be significant weather present at this time

METAR text: KMNH 010417Z AUTO 21006KT 10SM SCT120 10/M07 A2995 RMK AO2
Conditions at: KMNH (MONUMENT/ELBERT , CO, US) observed 0417 UTC 01 April 2015
Temperature: 10.0°C (50°F)
Dewpoint: -7.0°C (19°F) [RH = 29%]
Pressure (altimeter): 29.95 inches Hg (1014.3 mb)
Winds: from the SSW (210 degrees) at 7 MPH (6 knots; 3.1 m/s)
Visibility: 10 or more miles (16+ km)
Ceiling: at least 12,000 feet AGL
Clouds: scattered clouds at 12000 feet AGL
Weather: automated observation with no human augmentation;
there may or may not be significant weather present at this time

METAR text: KMNH 010357Z AUTO 20009KT 10SM SCT120 11/M07 A2995 RMK AO2
Conditions at: KMNH (MONUMENT/ELBERT , CO, US) observed 0357 UTC 01 April 2015
Temperature: 11.0°C (52°F)
Dewpoint: -7.0°C (19°F) [RH = 28%]
Pressure (altimeter): 29.95 inches Hg (1014.3 mb)
Winds: from the SSW (200 degrees) at 10 MPH (9 knots; 4.7 m/s)
Visibility: 10 or more miles (16+ km)
Ceiling: at least 12,000 feet AGL
Clouds: scattered clouds at 12000 feet AGL
Weather: automated observation with no human augmentation;
there may or may not be significant weather present at this time

METAR text: KMNH 010337Z AUTO 18010KT 10SM SCT120 12/M07 A2995 RMK AO2
Conditions at: KMNH (MONUMENT/ELBERT , CO, US) observed 0337 UTC 01 April 2015
Temperature: 12.0°C (54°F)
Dewpoint: -7.0°C (19°F) [RH = 26%]
Pressure (altimeter): 29.95 inches Hg (1014.3 mb)
Winds: from the S (180 degrees) at 12 MPH (10 knots; 5.2 m/s)
Visibility: 10 or more miles (16+ km)
Ceiling: at least 12,000 feet AGL
Clouds: scattered clouds at 12000 feet AGL
Weather: automated observation with no human augmentation;
there may or may not be significant weather present at this time

METAR text: KMNH 010317Z AUTO 18013KT 10SM SCT120 13/M07 A2996 RMK AO2
Conditions at: KMNH (MONUMENT/ELBERT , CO, US) observed 0317 UTC 01 April 2015
Temperature: 13.0°C (55°F)
Dewpoint: -7.0°C (19°F) [RH = 24%]
Pressure (altimeter): 29.96 inches Hg (1014.6 mb)
Winds: from the S (180 degrees) at 15 MPH (13 knots; 6.8 m/s)
Visibility: 10 or more miles (16+ km)
Ceiling: at least 12,000 feet AGL
Clouds: scattered clouds at 12000 feet AGL
Weather: automated observation with no human augmentation;
there may or may not be significant weather present at this time

METAR text: KMNH 010257Z AUTO 18015KT 10SM SCT120 12/M07 A2995 RMK AO2
Conditions at: KMNH (MONUMENT/ELBERT , CO, US) observed 0257 UTC 01 April 2015
Temperature: 12.0°C (54°F)
Dewpoint: -7.0°C (19°F) [RH = 26%]
Pressure (altimeter): 29.95 inches Hg (1014.3 mb)
Winds: from the S (180 degrees) at 17 MPH (15 knots; 7.8 m/s)
Visibility: 10 or more miles (16+ km)
Ceiling: at least 12,000 feet AGL
Clouds: scattered clouds at 12000 feet AGL
Weather: automated observation with no human augmentation;
there may or may not be significant weather present at this time

METAR text: KMNH 010237Z AUTO 19008KT 10SM SCT120 12/M06 A2995 RMK AO2
Conditions at: KMNH (MONUMENT/ELBERT , CO, US) observed 0237 UTC 01 April 2015
Temperature: 12.0°C (54°F)
Dewpoint: -6.0°C (21°F) [RH = 28%]
Pressure (altimeter): 29.95 inches Hg (1014.3 mb)
Winds: from the S (190 degrees) at 9 MPH (8 knots; 4.2 m/s)
Visibility: 10 or more miles (16+ km)
Ceiling: at least 12,000 feet AGL
Clouds: scattered clouds at 12000 feet AGL
Weather: automated observation with no human augmentation;
there may or may not be significant weather present at this time

METAR text: KMNH 010216Z AUTO 20010KT 10SM CLR 10/M05 A2995 RMK AO2
Conditions at: KMNH (MONUMENT/ELBERT , CO, US) observed 0216 UTC 01 April 2015
Temperature: 10.0°C (50°F)
Dewpoint: -5.0°C (23°F) [RH = 34%]
Pressure (altimeter): 29.95 inches Hg (1014.3 mb)
Winds: from the SSW (200 degrees) at 12 MPH (10 knots; 5.2 m/s)
Visibility: 10 or more miles (16+ km)
Ceiling: at least 12,000 feet AGL
Clouds: sky clear below 12,000 feet AGL
Weather: automated observation with no human augmentation;
there may or may not be significant weather present at this time

METAR text: KMNH 010157Z AUTO 20005KT 10SM SCT120 10/M04 A2995 RMK AO2
Conditions at: KMNH (MONUMENT/ELBERT , CO, US) observed 0157 UTC 01 April 2015
Temperature: 10.0°C (50°F)
Dewpoint: -4.0°C (25°F) [RH = 37%]
Pressure (altimeter): 29.95 inches Hg (1014.3 mb)
Winds: from the SSW (200 degrees) at 6 MPH (5 knots; 2.6 m/s)
Visibility: 10 or more miles (16+ km)
Ceiling: at least 12,000 feet AGL
Clouds: scattered clouds at 12000 feet AGL
Weather: automated observation with no human augmentation;
there may or may not be significant weather present at this time

METAR text: KMNH 010136Z AUTO 19005KT 10SM CLR 11/M06 A2995 RMK AO2
Conditions at: KMNH (MONUMENT/ELBERT , CO, US) observed 0136 UTC 01 April 2015
Temperature: 11.0°C (52°F)
Dewpoint: -6.0°C (21°F) [RH = 30%]
Pressure (altimeter): 29.95 inches Hg (1014.3 mb)
Winds: from the S (190 degrees) at 6 MPH (5 knots; 2.6 m/s)
Visibility: 10 or more miles (16+ km)
Ceiling: at least 12,000 feet AGL
Clouds: sky clear below 12,000 feet AGL
Weather: automated observation with no human augmentation;
there may or may not be significant weather present at this time

METAR text: KMNH 010117Z AUTO 00000KT 7SM SCT120 12/M07 A2995 RMK AO2
Conditions at: KMNH (MONUMENT/ELBERT , CO, US) observed 0117 UTC 01 April 2015
Temperature: 12.0°C (54°F)
Dewpoint: -7.0°C (19°F) [RH = 26%]
Pressure (altimeter): 29.95 inches Hg (1014.3 mb)
Winds: calm
Visibility: 7 miles (11 km)
Ceiling: at least 12,000 feet AGL
Clouds: scattered clouds at 12000 feet AGL
Weather: automated observation with no human augmentation;
there may or may not be significant weather present at this time

METAR text: KMNH 010057Z AUTO 00000KT 10SM CLR 13/M08 A2995 RMK AO2
Conditions at: KMNH (MONUMENT/ELBERT , CO, US) observed 0057 UTC 01 April 2015
Temperature: 13.0°C (55°F)
Dewpoint: -8.0°C (18°F) [RH = 22%]
Pressure (altimeter): 29.95 inches Hg (1014.3 mb)
Winds: calm
Visibility: 10 or more miles (16+ km)
Ceiling: at least 12,000 feet AGL
Clouds: sky clear below 12,000 feet AGL
Weather: automated observation with no human augmentation;
there may or may not be significant weather present at this time

METAR text: KMNH 010037Z AUTO 16006KT 10SM SCT120 15/M08 A2996 RMK AO2
Conditions at: KMNH (MONUMENT/ELBERT , CO, US) observed 0037 UTC 01 April 2015
Temperature: 15.0°C (59°F)
Dewpoint: -8.0°C (18°F) [RH = 20%]
Pressure (altimeter): 29.96 inches Hg (1014.6 mb)
Winds: from the SSE (160 degrees) at 7 MPH (6 knots; 3.1 m/s)
Visibility: 10 or more miles (16+ km)
Ceiling: at least 12,000 feet AGL
Clouds: scattered clouds at 12000 feet AGL
Weather: automated observation with no human augmentation;
there may or may not be significant weather present at this time

METAR text: KMNH 010017Z AUTO 18008G18KT 10SM SCT120 17/M08 A2997 RMK AO2
Conditions at: KMNH (MONUMENT/ELBERT , CO, US) observed 0017 UTC 01 April 2015
Temperature: 17.0°C (63°F)
Dewpoint: -8.0°C (18°F) [RH = 17%]
Pressure (altimeter): 29.97 inches Hg (1015.0 mb)
Winds: from the S (180 degrees) at 9 MPH (8 knots; 4.2 m/sgusting to 21 MPH (18 knots; 9.4 m/s)
Visibility: 10 or more miles (16+ km)
Ceiling: at least 12,000 feet AGL
Clouds: scattered clouds at 12000 feet AGL
Weather: automated observation with no human augmentation;
there may or may not be significant weather present at this time

METAR text: KMNH 312357Z AUTO 22009G20KT 10SM CLR 17/M10 A2997 RMK AO2
Conditions at: KMNH (MONUMENT/ELBERT , CO, US) observed 2357 UTC 31 March 2015
Temperature: 17.0°C (63°F)
Dewpoint: -10.0°C (14°F) [RH = 15%]
Pressure (altimeter): 29.97 inches Hg (1015.0 mb)
Winds: from the SW (220 degrees) at 10 MPH (9 knots; 4.7 m/sgusting to 23 MPH (20 knots; 10.4 m/s)
Visibility: 10 or more miles (16+ km)
Ceiling: at least 12,000 feet AGL
Clouds: sky clear below 12,000 feet AGL
Weather: automated observation with no human augmentation;
there may or may not be significant weather present at this time

METAR text: KMNH 312337Z AUTO 22011G15KT 10SM SCT120 18/M10 A2997 RMK AO2
Conditions at: KMNH (MONUMENT/ELBERT , CO, US) observed 2337 UTC 31 March 2015
Temperature: 18.0°C (64°F)
Dewpoint: -10.0°C (14°F) [RH = 14%]
Pressure (altimeter): 29.97 inches Hg (1015.0 mb)
Winds: from the SW (220 degrees) at 13 MPH (11 knots; 5.7 m/sgusting to 17 MPH (15 knots; 7.8 m/s)
Visibility: 10 or more miles (16+ km)
Ceiling: at least 12,000 feet AGL
Clouds: scattered clouds at 12000 feet AGL
Weather: automated observation with no human augmentation;
there may or may not be significant weather present at this time

METAR text: KMNH 312317Z AUTO 17012G15KT 10SM SCT095 SCT120 20/M08 A2997 RMK AO2
Conditions at: KMNH (MONUMENT/ELBERT , CO, US) observed 2317 UTC 31 March 2015
Temperature: 20.0°C (68°F)
Dewpoint: -8.0°C (18°F) [RH = 14%]
Pressure (altimeter): 29.97 inches Hg (1015.0 mb)
Winds: from the S (170 degrees) at 14 MPH (12 knots; 6.2 m/sgusting to 17 MPH (15 knots; 7.8 m/s)
Visibility: 10 or more miles (16+ km)
Ceiling: at least 12,000 feet AGL
Clouds: scattered clouds at 9500 feet AGL
scattered clouds at 12000 feet AGL
Weather: automated observation with no human augmentation;
there may or may not be significant weather present at this time

METAR text: KMNH 312257Z AUTO 19012G17KT 10SM SCT095 BKN110 19/M10 A2997 RMK AO2
Conditions at: KMNH (MONUMENT/ELBERT , CO, US) observed 2257 UTC 31 March 2015
Temperature: 19.0°C (66°F)
Dewpoint: -10.0°C (14°F) [RH = 13%]
Pressure (altimeter): 29.97 inches Hg (1015.0 mb)
Winds: from the S (190 degrees) at 14 MPH (12 knots; 6.2 m/sgusting to 20 MPH (17 knots; 8.8 m/s)
Visibility: 10 or more miles (16+ km)
Ceiling: 11000 feet AGL
Clouds: scattered clouds at 9500 feet AGL
broken clouds at 11000 feet AGL
Weather: automated observation with no human augmentation;
there may or may not be significant weather present at this time

METAR text: KMNH 312237Z AUTO 23007KT 10SM SCT120 18/M10 A2998 RMK AO2
Conditions at: KMNH (MONUMENT/ELBERT , CO, US) observed 2237 UTC 31 March 2015
Temperature: 18.0°C (64°F)
Dewpoint: -10.0°C (14°F) [RH = 14%]
Pressure (altimeter): 29.98 inches Hg (1015.3 mb)
Winds: from the SW (230 degrees) at 8 MPH (7 knots; 3.6 m/s)
Visibility: 10 or more miles (16+ km)
Ceiling: at least 12,000 feet AGL
Clouds: scattered clouds at 12000 feet AGL
Weather: automated observation with no human augmentation;
there may or may not be significant weather present at this time

METAR text: KMNH 312217Z AUTO 24006KT 10SM SCT110 18/M10 A2999 RMK AO2
Conditions at: KMNH (MONUMENT/ELBERT , CO, US) observed 2217 UTC 31 March 2015
Temperature: 18.0°C (64°F)
Dewpoint: -10.0°C (14°F) [RH = 14%]
Pressure (altimeter): 29.99 inches Hg (1015.7 mb)
Winds: from the WSW (240 degrees) at 7 MPH (6 knots; 3.1 m/s)
Visibility: 10 or more miles (16+ km)
Ceiling: at least 12,000 feet AGL
Clouds: scattered clouds at 11000 feet AGL
Weather: automated observation with no human augmentation;
there may or may not be significant weather present at this time

METAR text: KMNH 312157Z AUTO 16010KT 10SM SCT120 18/M09 A2999 RMK AO2
Conditions at: KMNH (MONUMENT/ELBERT , CO, US) observed 2157 UTC 31 March 2015
Temperature: 18.0°C (64°F)
Dewpoint: -9.0°C (16°F) [RH = 15%]
Pressure (altimeter): 29.99 inches Hg (1015.7 mb)
Winds: from the SSE (160 degrees) at 12 MPH (10 knots; 5.2 m/s)
Visibility: 10 or more miles (16+ km)
Ceiling: at least 12,000 feet AGL
Clouds: scattered clouds at 12000 feet AGL
Weather: automated observation with no human augmentation;
there may or may not be significant weather present at this time

METAR text: KMNH 312137Z AUTO 17012G17KT 10SM CLR 18/M10 A2999 RMK AO2
Conditions at: KMNH (MONUMENT/ELBERT , CO, US) observed 2137 UTC 31 March 2015
Temperature: 18.0°C (64°F)
Dewpoint: -10.0°C (14°F) [RH = 14%]
Pressure (altimeter): 29.99 inches Hg (1015.7 mb)
Winds: from the S (170 degrees) at 14 MPH (12 knots; 6.2 m/sgusting to 20 MPH (17 knots; 8.8 m/s)
Visibility: 10 or more miles (16+ km)
Ceiling: at least 12,000 feet AGL
Clouds: sky clear below 12,000 feet AGL
Weather: automated observation with no human augmentation;
there may or may not be significant weather present at this time

METAR text: KMNH 312117Z AUTO 19007G10KT 10SM CLR 21/M12 A3000 RMK AO2
Conditions at: KMNH (MONUMENT/ELBERT , CO, US) observed 2117 UTC 31 March 2015
Temperature: 21.0°C (70°F)
Dewpoint: -12.0°C (10°F) [RH = 10%]
Pressure (altimeter): 30.00 inches Hg (1016.0 mb)
Winds: from the S (190 degrees) at 8 MPH (7 knots; 3.6 m/sgusting to 12 MPH (10 knots; 5.2 m/s)
Visibility: 10 or more miles (16+ km)
Ceiling: at least 12,000 feet AGL
Clouds: sky clear below 12,000 feet AGL
Weather: automated observation with no human augmentation;
there may or may not be significant weather present at this time

METAR text: KMNH 312057Z AUTO 15007KT 10SM CLR 20/M11 A3001 RMK AO2
Conditions at: KMNH (MONUMENT/ELBERT , CO, US) observed 2057 UTC 31 March 2015
Temperature: 20.0°C (68°F)
Dewpoint: -11.0°C (12°F) [RH = 11%]
Pressure (altimeter): 30.01 inches Hg (1016.3 mb)
Winds: from the SSE (150 degrees) at 8 MPH (7 knots; 3.6 m/s)
Visibility: 10 or more miles (16+ km)
Ceiling: at least 12,000 feet AGL
Clouds: sky clear below 12,000 feet AGL
Weather: automated observation with no human augmentation;
there may or may not be significant weather present at this time

METAR text: KMNH 312037Z AUTO 17013G17KT 10SM CLR 18/M10 A3003 RMK AO2
Conditions at: KMNH (MONUMENT/ELBERT , CO, US) observed 2037 UTC 31 March 2015
Temperature: 18.0°C (64°F)
Dewpoint: -10.0°C (14°F) [RH = 14%]
Pressure (altimeter): 30.03 inches Hg (1017.0 mb)
Winds: from the S (170 degrees) at 15 MPH (13 knots; 6.8 m/sgusting to 20 MPH (17 knots; 8.8 m/s)
Visibility: 10 or more miles (16+ km)
Ceiling: at least 12,000 feet AGL
Clouds: sky clear below 12,000 feet AGL
Weather: automated observation with no human augmentation;
there may or may not be significant weather present at this time

METAR text: KMNH 312017Z AUTO 26003KT 210V280 10SM CLR 21/M10 A3004 RMK AO2
Conditions at: KMNH (MONUMENT/ELBERT , CO, US) observed 2017 UTC 31 March 2015
Temperature: 21.0°C (70°F)
Dewpoint: -10.0°C (14°F) [RH = 12%]
Pressure (altimeter): 30.04 inches Hg (1017.4 mb)
Winds: from the W (260 degrees) at 3 MPH (3 knots; 1.6 m/s)
Visibility: 10 or more miles (16+ km)
Ceiling: at least 12,000 feet AGL
Clouds: sky clear below 12,000 feet AGL
Weather: automated observation with no human augmentation;
there may or may not be significant weather present at this time

METAR text: KMNH 311957Z AUTO 21003G14KT 10SM CLR 20/M11 A3005 RMK AO2
Conditions at: KMNH (MONUMENT/ELBERT , CO, US) observed 1957 UTC 31 March 2015
Temperature: 20.0°C (68°F)
Dewpoint: -11.0°C (12°F) [RH = 11%]
Pressure (altimeter): 30.05 inches Hg (1017.7 mb)
Winds: from the SSW (210 degrees) at 3 MPH (3 knots; 1.6 m/sgusting to 16 MPH (14 knots; 7.3 m/s)
Visibility: 10 or more miles (16+ km)
Ceiling: at least 12,000 feet AGL
Clouds: sky clear below 12,000 feet AGL
Weather: automated observation with no human augmentation;
there may or may not be significant weather present at this time

METAR text: KMNH 311936Z AUTO 28004KT 10SM CLR 20/M11 A3007 RMK AO2
Conditions at: KMNH (MONUMENT/ELBERT , CO, US) observed 1936 UTC 31 March 2015
Temperature: 20.0°C (68°F)
Dewpoint: -11.0°C (12°F) [RH = 11%]
Pressure (altimeter): 30.07 inches Hg (1018.4 mb)
Winds: from the W (280 degrees) at 5 MPH (4 knots; 2.1 m/s)
Visibility: 10 or more miles (16+ km)
Ceiling: at least 12,000 feet AGL
Clouds: sky clear below 12,000 feet AGL
Weather: automated observation with no human augmentation;
there may or may not be significant weather present at this time

METAR text: KMNH 311917Z AUTO 20007G15KT 10SM CLR 20/M10 A3008 RMK AO2
Conditions at: KMNH (MONUMENT/ELBERT , CO, US) observed 1917 UTC 31 March 2015
Temperature: 20.0°C (68°F)
Dewpoint: -10.0°C (14°F) [RH = 12%]
Pressure (altimeter): 30.08 inches Hg (1018.7 mb)
Winds: from the SSW (200 degrees) at 8 MPH (7 knots; 3.6 m/sgusting to 17 MPH (15 knots; 7.8 m/s)
Visibility: 10 or more miles (16+ km)
Ceiling: at least 12,000 feet AGL
Clouds: sky clear below 12,000 feet AGL
Weather: automated observation with no human augmentation;
there may or may not be significant weather present at this time

METAR text: KMNH 311857Z AUTO 19004KT 10SM CLR 20/M09 A3009 RMK AO2
Conditions at: KMNH (MONUMENT/ELBERT , CO, US) observed 1857 UTC 31 March 2015
Temperature: 20.0°C (68°F)
Dewpoint: -9.0°C (16°F) [RH = 13%]
Pressure (altimeter): 30.09 inches Hg (1019.0 mb)
Winds: from the S (190 degrees) at 5 MPH (4 knots; 2.1 m/s)
Visibility: 10 or more miles (16+ km)
Ceiling: at least 12,000 feet AGL
Clouds: sky clear below 12,000 feet AGL
Weather: automated observation with no human augmentation;
there may or may not be significant weather present at this time

METAR text: KMNH 311837Z AUTO 28007KT 250V310 10SM CLR 19/M10 A3010 RMK AO2
Conditions at: KMNH (MONUMENT/ELBERT , CO, US) observed 1837 UTC 31 March 2015
Temperature: 19.0°C (66°F)
Dewpoint: -10.0°C (14°F) [RH = 13%]
Pressure (altimeter): 30.10 inches Hg (1019.4 mb)
Winds: from the W (280 degrees) at 8 MPH (7 knots; 3.6 m/s)
Visibility: 10 or more miles (16+ km)
Ceiling: at least 12,000 feet AGL
Clouds: sky clear below 12,000 feet AGL
Weather: automated observation with no human augmentation;
there may or may not be significant weather present at this time

METAR text: KMNH 311817Z AUTO 27003KT 10SM CLR 18/M10 A3011 RMK AO2
Conditions at: KMNH (MONUMENT/ELBERT , CO, US) observed 1817 UTC 31 March 2015
Temperature: 18.0°C (64°F)
Dewpoint: -10.0°C (14°F) [RH = 14%]
Pressure (altimeter): 30.11 inches Hg (1019.7 mb)
Winds: from the W (270 degrees) at 3 MPH (3 knots; 1.6 m/s)
Visibility: 10 or more miles (16+ km)
Ceiling: at least 12,000 feet AGL
Clouds: sky clear below 12,000 feet AGL
Weather: automated observation with no human augmentation;
there may or may not be significant weather present at this time

METAR text: KMNH 311757Z AUTO 31008KT 10SM CLR 18/M10 A3012 RMK AO2
Conditions at: KMNH (MONUMENT/ELBERT , CO, US) observed 1757 UTC 31 March 2015
Temperature: 18.0°C (64°F)
Dewpoint: -10.0°C (14°F) [RH = 14%]
Pressure (altimeter): 30.12 inches Hg (1020.1 mb)
Winds: from the NW (310 degrees) at 9 MPH (8 knots; 4.2 m/s)
Visibility: 10 or more miles (16+ km)
Ceiling: at least 12,000 feet AGL
Clouds: sky clear below 12,000 feet AGL
Weather: automated observation with no human augmentation;
there may or may not be significant weather present at this time

METAR text: KMNH 311737Z AUTO 27005KT 10SM CLR 18/M11 A3013 RMK AO2
Conditions at: KMNH (MONUMENT/ELBERT , CO, US) observed 1737 UTC 31 March 2015
Temperature: 18.0°C (64°F)
Dewpoint: -11.0°C (12°F) [RH = 13%]
Pressure (altimeter): 30.13 inches Hg (1020.4 mb)
Winds: from the W (270 degrees) at 6 MPH (5 knots; 2.6 m/s)
Visibility: 10 or more miles (16+ km)
Ceiling: at least 12,000 feet AGL
Clouds: sky clear below 12,000 feet AGL
Weather: automated observation with no human augmentation;
there may or may not be significant weather present at this time

METAR text: KMNH 311716Z AUTO 32006KT 10SM CLR 18/M10 A3013 RMK AO2
Conditions at: KMNH (MONUMENT/ELBERT , CO, US) observed 1716 UTC 31 March 2015
Temperature: 18.0°C (64°F)
Dewpoint: -10.0°C (14°F) [RH = 14%]
Pressure (altimeter): 30.13 inches Hg (1020.4 mb)
Winds: from the NW (320 degrees) at 7 MPH (6 knots; 3.1 m/s)
Visibility: 10 or more miles (16+ km)
Ceiling: at least 12,000 feet AGL
Clouds: sky clear below 12,000 feet AGL
Weather: automated observation with no human augmentation;
there may or may not be significant weather present at this time

METAR text: KMNH 311657Z AUTO 00000KT 10SM CLR 18/M10 A3013 RMK AO2
Conditions at: KMNH (MONUMENT/ELBERT , CO, US) observed 1657 UTC 31 March 2015
Temperature: 18.0°C (64°F)
Dewpoint: -10.0°C (14°F) [RH = 14%]
Pressure (altimeter): 30.13 inches Hg (1020.4 mb)
Winds: calm
Visibility: 10 or more miles (16+ km)
Ceiling: at least 12,000 feet AGL
Clouds: sky clear below 12,000 feet AGL
Weather: automated observation with no human augmentation;
there may or may not be significant weather present at this time

METAR text: KMNH 311637Z AUTO 25005KT 10SM CLR 17/M10 A3014 RMK AO2
Conditions at: KMNH (MONUMENT/ELBERT , CO, US) observed 1637 UTC 31 March 2015
Temperature: 17.0°C (63°F)
Dewpoint: -10.0°C (14°F) [RH = 15%]
Pressure (altimeter): 30.14 inches Hg (1020.7 mb)
Winds: from the WSW (250 degrees) at 6 MPH (5 knots; 2.6 m/s)
Visibility: 10 or more miles (16+ km)
Ceiling: at least 12,000 feet AGL
Clouds: sky clear below 12,000 feet AGL
Weather: automated observation with no human augmentation;
there may or may not be significant weather present at this time

METAR text: KMNH 311616Z AUTO 27005KT 10SM CLR 17/M09 A3015 RMK AO2
Conditions at: KMNH (MONUMENT/ELBERT , CO, US) observed 1616 UTC 31 March 2015
Temperature: 17.0°C (63°F)
Dewpoint: -9.0°C (16°F) [RH = 16%]
Pressure (altimeter): 30.15 inches Hg (1021.1 mb)
Winds: from the W (270 degrees) at 6 MPH (5 knots; 2.6 m/s)
Visibility: 10 or more miles (16+ km)
Ceiling: at least 12,000 feet AGL
Clouds: sky clear below 12,000 feet AGL
Weather: automated observation with no human augmentation;
there may or may not be significant weather present at this time

METAR text: KMNH 311556Z AUTO 28005KT 10SM CLR 16/M09 A3015 RMK AO2
Conditions at: KMNH (MONUMENT/ELBERT , CO, US) observed 1556 UTC 31 March 2015
Temperature: 16.0°C (61°F)
Dewpoint: -9.0°C (16°F) [RH = 17%]
Pressure (altimeter): 30.15 inches Hg (1021.1 mb)
Winds: from the W (280 degrees) at 6 MPH (5 knots; 2.6 m/s)
Visibility: 10 or more miles (16+ km)
Ceiling: at least 12,000 feet AGL
Clouds: sky clear below 12,000 feet AGL
Weather: automated observation with no human augmentation;
there may or may not be significant weather present at this time

METAR text: KMNH 311537Z AUTO 26005KT 10SM CLR 16/M08 A3015 RMK AO2
Conditions at: KMNH (MONUMENT/ELBERT , CO, US) observed 1537 UTC 31 March 2015
Temperature: 16.0°C (61°F)
Dewpoint: -8.0°C (18°F) [RH = 18%]
Pressure (altimeter): 30.15 inches Hg (1021.1 mb)
Winds: from the W (260 degrees) at 6 MPH (5 knots; 2.6 m/s)
Visibility: 10 or more miles (16+ km)
Ceiling: at least 12,000 feet AGL
Clouds: sky clear below 12,000 feet AGL
Weather: automated observation with no human augmentation;
there may or may not be significant weather present at this time

METAR text: KMNH 311517Z AUTO 23004KT 10SM CLR 15/M07 A3015 RMK AO2
Conditions at: KMNH (MONUMENT/ELBERT , CO, US) observed 1517 UTC 31 March 2015
Temperature: 15.0°C (59°F)
Dewpoint: -7.0°C (19°F) [RH = 21%]
Pressure (altimeter): 30.15 inches Hg (1021.1 mb)
Winds: from the SW (230 degrees) at 5 MPH (4 knots; 2.1 m/s)
Visibility: 10 or more miles (16+ km)
Ceiling: at least 12,000 feet AGL
Clouds: sky clear below 12,000 feet AGL
Weather: automated observation with no human augmentation;
there may or may not be significant weather present at this time

METAR text: KMNH 311456Z AUTO 23006KT 10SM CLR 12/M06 A3015 RMK AO2
Conditions at: KMNH (MONUMENT/ELBERT , CO, US) observed 1456 UTC 31 March 2015
Temperature: 12.0°C (54°F)
Dewpoint: -6.0°C (21°F) [RH = 28%]
Pressure (altimeter): 30.15 inches Hg (1021.1 mb)
Winds: from the SW (230 degrees) at 7 MPH (6 knots; 3.1 m/s)
Visibility: 10 or more miles (16+ km)
Ceiling: at least 12,000 feet AGL
Clouds: sky clear below 12,000 feet AGL
Weather: automated observation with no human augmentation;
there may or may not be significant weather present at this time

METAR text: KMNH 311437Z AUTO 22006KT 10SM CLR 11/M06 A3015 RMK AO2
Conditions at: KMNH (MONUMENT/ELBERT , CO, US) observed 1437 UTC 31 March 2015
Temperature: 11.0°C (52°F)
Dewpoint: -6.0°C (21°F) [RH = 30%]
Pressure (altimeter): 30.15 inches Hg (1021.1 mb)
Winds: from the SW (220 degrees) at 7 MPH (6 knots; 3.1 m/s)
Visibility: 10 or more miles (16+ km)
Ceiling: at least 12,000 feet AGL
Clouds: sky clear below 12,000 feet AGL
Weather: automated observation with no human augmentation;
there may or may not be significant weather present at this time

METAR text: KMNH 311417Z AUTO 22006KT 10SM CLR 10/M07 A3015 RMK AO2
Conditions at: KMNH (MONUMENT/ELBERT , CO, US) observed 1417 UTC 31 March 2015
Temperature: 10.0°C (50°F)
Dewpoint: -7.0°C (19°F) [RH = 29%]
Pressure (altimeter): 30.15 inches Hg (1021.1 mb)
Winds: from the SW (220 degrees) at 7 MPH (6 knots; 3.1 m/s)
Visibility: 10 or more miles (16+ km)
Ceiling: at least 12,000 feet AGL
Clouds: sky clear below 12,000 feet AGL
Weather: automated observation with no human augmentation;
there may or may not be significant weather present at this time

METAR text: KMNH 311357Z AUTO 22008KT 10SM CLR 08/M07 A3015 RMK AO2
Conditions at: KMNH (MONUMENT/ELBERT , CO, US) observed 1357 UTC 31 March 2015
Temperature: 8.0°C (46°F)
Dewpoint: -7.0°C (19°F) [RH = 34%]
Pressure (altimeter): 30.15 inches Hg (1021.1 mb)
Winds: from the SW (220 degrees) at 9 MPH (8 knots; 4.2 m/s)
Visibility: 10 or more miles (16+ km)
Ceiling: at least 12,000 feet AGL
Clouds: sky clear below 12,000 feet AGL
Weather: automated observation with no human augmentation;
there may or may not be significant weather present at this time

METAR text: KMNH 311337Z AUTO 21006KT 10SM CLR 05/M06 A3015 RMK AO2
Conditions at: KMNH (MONUMENT/ELBERT , CO, US) observed 1337 UTC 31 March 2015
Temperature: 5.0°C (41°F)
Dewpoint: -6.0°C (21°F) [RH = 45%]
Pressure (altimeter): 30.15 inches Hg (1021.1 mb)
Winds: from the SSW (210 degrees) at 7 MPH (6 knots; 3.1 m/s)
Visibility: 10 or more miles (16+ km)
Ceiling: at least 12,000 feet AGL
Clouds: sky clear below 12,000 feet AGL
Weather: automated observation with no human augmentation;
there may or may not be significant weather present at this time

METAR text: KMNH 311317Z AUTO 21007KT 10SM CLR 03/M07 A3015 RMK AO2
Conditions at: KMNH (MONUMENT/ELBERT , CO, US) observed 1317 UTC 31 March 2015
Temperature: 3.0°C (37°F)
Dewpoint: -7.0°C (19°F) [RH = 48%]
Pressure (altimeter): 30.15 inches Hg (1021.1 mb)
Winds: from the SSW (210 degrees) at 8 MPH (7 knots; 3.6 m/s)
Visibility: 10 or more miles (16+ km)
Ceiling: at least 12,000 feet AGL
Clouds: sky clear below 12,000 feet AGL
Weather: automated observation with no human augmentation;
there may or may not be significant weather present at this time

METAR text: KMNH 311256Z AUTO 20007KT 10SM CLR 02/M07 A3015 RMK AO2
Conditions at: KMNH (MONUMENT/ELBERT , CO, US) observed 1256 UTC 31 March 2015
Temperature: 2.0°C (36°F)
Dewpoint: -7.0°C (19°F) [RH = 51%]
Pressure (altimeter): 30.15 inches Hg (1021.1 mb)
Winds: from the SSW (200 degrees) at 8 MPH (7 knots; 3.6 m/s)
Visibility: 10 or more miles (16+ km)
Ceiling: at least 12,000 feet AGL
Clouds: sky clear below 12,000 feet AGL
Weather: automated observation with no human augmentation;
there may or may not be significant weather present at this time

METAR text: KMNH 311235Z AUTO 21007KT 10SM CLR 02/M07 A3015 RMK AO2
Conditions at: KMNH (MONUMENT/ELBERT , CO, US) observed 1235 UTC 31 March 2015
Temperature: 2.0°C (36°F)
Dewpoint: -7.0°C (19°F) [RH = 51%]
Pressure (altimeter): 30.15 inches Hg (1021.1 mb)
Winds: from the SSW (210 degrees) at 8 MPH (7 knots; 3.6 m/s)
Visibility: 10 or more miles (16+ km)
Ceiling: at least 12,000 feet AGL
Clouds: sky clear below 12,000 feet AGL
Weather: automated observation with no human augmentation;
there may or may not be significant weather present at this time

METAR text: KMNH 311217Z AUTO 21006KT 10SM CLR 02/M07 A3015 RMK AO2
Conditions at: KMNH (MONUMENT/ELBERT , CO, US) observed 1217 UTC 31 March 2015
Temperature: 2.0°C (36°F)
Dewpoint: -7.0°C (19°F) [RH = 51%]
Pressure (altimeter): 30.15 inches Hg (1021.1 mb)
Winds: from the SSW (210 degrees) at 7 MPH (6 knots; 3.1 m/s)
Visibility: 10 or more miles (16+ km)
Ceiling: at least 12,000 feet AGL
Clouds: sky clear below 12,000 feet AGL
Weather: automated observation with no human augmentation;
there may or may not be significant weather present at this time

METAR text: KMNH 311157Z AUTO 21007KT 10SM CLR 02/M07 A3014 RMK AO2
Conditions at: KMNH (MONUMENT/ELBERT , CO, US) observed 1157 UTC 31 March 2015
Temperature: 2.0°C (36°F)
Dewpoint: -7.0°C (19°F) [RH = 51%]
Pressure (altimeter): 30.14 inches Hg (1020.7 mb)
Winds: from the SSW (210 degrees) at 8 MPH (7 knots; 3.6 m/s)
Visibility: 10 or more miles (16+ km)
Ceiling: at least 12,000 feet AGL
Clouds: sky clear below 12,000 feet AGL
Weather: automated observation with no human augmentation;
there may or may not be significant weather present at this time

METAR text: KMNH 311137Z AUTO 21008KT 10SM CLR 02/M07 A3014 RMK AO2
Conditions at: KMNH (MONUMENT/ELBERT , CO, US) observed 1137 UTC 31 March 2015
Temperature: 2.0°C (36°F)
Dewpoint: -7.0°C (19°F) [RH = 51%]
Pressure (altimeter): 30.14 inches Hg (1020.7 mb)
Winds: from the SSW (210 degrees) at 9 MPH (8 knots; 4.2 m/s)
Visibility: 10 or more miles (16+ km)
Ceiling: at least 12,000 feet AGL
Clouds: sky clear below 12,000 feet AGL
Weather: automated observation with no human augmentation;
there may or may not be significant weather present at this time

METAR text: KMNH 311117Z AUTO 20008KT 10SM CLR 03/M07 A3015 RMK AO2
Conditions at: KMNH (MONUMENT/ELBERT , CO, US) observed 1117 UTC 31 March 2015
Temperature: 3.0°C (37°F)
Dewpoint: -7.0°C (19°F) [RH = 48%]
Pressure (altimeter): 30.15 inches Hg (1021.1 mb)
Winds: from the SSW (200 degrees) at 9 MPH (8 knots; 4.2 m/s)
Visibility: 10 or more miles (16+ km)
Ceiling: at least 12,000 feet AGL
Clouds: sky clear below 12,000 feet AGL
Weather: automated observation with no human augmentation;
there may or may not be significant weather present at this time

METAR text: KMNH 311057Z AUTO 20008KT 10SM CLR 03/M07 A3015 RMK AO2
Conditions at: KMNH (MONUMENT/ELBERT , CO, US) observed 1057 UTC 31 March 2015
Temperature: 3.0°C (37°F)
Dewpoint: -7.0°C (19°F) [RH = 48%]
Pressure (altimeter): 30.15 inches Hg (1021.1 mb)
Winds: from the SSW (200 degrees) at 9 MPH (8 knots; 4.2 m/s)
Visibility: 10 or more miles (16+ km)
Ceiling: at least 12,000 feet AGL
Clouds: sky clear below 12,000 feet AGL
Weather: automated observation with no human augmentation;
there may or may not be significant weather present at this time

METAR text: KMNH 311037Z AUTO 20008KT 10SM CLR 02/M07 A3015 RMK AO2
Conditions at: KMNH (MONUMENT/ELBERT , CO, US) observed 1037 UTC 31 March 2015
Temperature: 2.0°C (36°F)
Dewpoint: -7.0°C (19°F) [RH = 51%]
Pressure (altimeter): 30.15 inches Hg (1021.1 mb)
Winds: from the SSW (200 degrees) at 9 MPH (8 knots; 4.2 m/s)
Visibility: 10 or more miles (16+ km)
Ceiling: at least 12,000 feet AGL
Clouds: sky clear below 12,000 feet AGL
Weather: automated observation with no human augmentation;
there may or may not be significant weather present at this time

METAR text: KMNH 311017Z AUTO 20008KT 10SM CLR 02/M06 A3015 RMK AO2
Conditions at: KMNH (MONUMENT/ELBERT , CO, US) observed 1017 UTC 31 March 2015
Temperature: 2.0°C (36°F)
Dewpoint: -6.0°C (21°F) [RH = 55%]
Pressure (altimeter): 30.15 inches Hg (1021.1 mb)
Winds: from the SSW (200 degrees) at 9 MPH (8 knots; 4.2 m/s)
Visibility: 10 or more miles (16+ km)
Ceiling: at least 12,000 feet AGL
Clouds: sky clear below 12,000 feet AGL
Weather: automated observation with no human augmentation;
there may or may not be significant weather present at this time

METAR text: KMNH 310957Z AUTO 19008KT 10SM CLR 02/M06 A3016 RMK AO2
Conditions at: KMNH (MONUMENT/ELBERT , CO, US) observed 0957 UTC 31 March 2015
Temperature: 2.0°C (36°F)
Dewpoint: -6.0°C (21°F) [RH = 55%]
Pressure (altimeter): 30.16 inches Hg (1021.4 mb)
Winds: from the S (190 degrees) at 9 MPH (8 knots; 4.2 m/s)
Visibility: 10 or more miles (16+ km)
Ceiling: at least 12,000 feet AGL
Clouds: sky clear below 12,000 feet AGL
Weather: automated observation with no human augmentation;
there may or may not be significant weather present at this time

METAR text: KMNH 310937Z AUTO 21008KT 10SM CLR 02/M06 A3016 RMK AO2
Conditions at: KMNH (MONUMENT/ELBERT , CO, US) observed 0937 UTC 31 March 2015
Temperature: 2.0°C (36°F)
Dewpoint: -6.0°C (21°F) [RH = 55%]
Pressure (altimeter): 30.16 inches Hg (1021.4 mb)
Winds: from the SSW (210 degrees) at 9 MPH (8 knots; 4.2 m/s)
Visibility: 10 or more miles (16+ km)
Ceiling: at least 12,000 feet AGL
Clouds: sky clear below 12,000 feet AGL
Weather: automated observation with no human augmentation;
there may or may not be significant weather present at this time

METAR text: KMNH 310917Z AUTO 20007KT 10SM CLR 02/M06 A3016 RMK AO2
Conditions at: KMNH (MONUMENT/ELBERT , CO, US) observed 0917 UTC 31 March 2015
Temperature: 2.0°C (36°F)
Dewpoint: -6.0°C (21°F) [RH = 55%]
Pressure (altimeter): 30.16 inches Hg (1021.4 mb)
Winds: from the SSW (200 degrees) at 8 MPH (7 knots; 3.6 m/s)
Visibility: 10 or more miles (16+ km)
Ceiling: at least 12,000 feet AGL
Clouds: sky clear below 12,000 feet AGL
Weather: automated observation with no human augmentation;
there may or may not be significant weather present at this time